TimeCDT,TemperatureF,Dew PointF,Humidity,Sea Level PressureIn,VisibilityMPH,Wind Direction,Wind SpeedMPH,Gust SpeedMPH,PrecipitationIn,Events,Conditions,WindDirDegrees,DateUTC
12:15 AM,73.8,68.9,85,29.98,10.0,East,6.9,-,N/A,,Clear,80,2013-09-08 05:15:00
12:35 AM,73.4,68.9,86,29.99,7.0,East,6.9,-,N/A,,Clear,90,2013-09-08 05:35:00
12:55 AM,74.1,69.1,84,29.98,10.0,East,5.8,-,N/A,,Clear,100,2013-09-08 05:55:00
1:15 AM,74.7,69.3,83,29.99,10.0,East,8.1,-,N/A,,Clear,100,2013-09-08 06:15:00
1:35 AM,74.7,69.3,83,29.99,10.0,SE,4.6,-,N/A,,Clear,140,2013-09-08 06:35:00
1:55 AM,73.4,69.1,86,29.98,7.0,SE,4.6,-,N/A,,Clear,140,2013-09-08 06:55:00
2:15 AM,72.9,68.9,87,29.97,7.0,East,5.8,-,N/A,,Clear,90,2013-09-08 07:15:00
2:35 AM,72.7,68.9,88,29.97,7.0,East,5.8,-,N/A,,Clear,90,2013-09-08 07:35:00
2:55 AM,72.7,68.7,87,29.96,7.0,ESE,5.8,-,N/A,,Clear,110,2013-09-08 07:55:00
3:15 AM,71.8,68.2,88,29.96,5.0,ESE,4.6,-,N/A,,Clear,110,2013-09-08 08:15:00
3:35 AM,71.8,68.2,88,29.96,5.0,ESE,4.6,-,N/A,,Clear,110,2013-09-08 08:35:00
3:55 AM,70.9,67.5,89,29.96,4.0,SE,3.5,-,N/A,,Clear,130,2013-09-08 08:55:00
4:15 AM,71.1,68.0,90,29.95,2.5,SE,3.5,-,N/A,,Mist,140,2013-09-08 09:15:00
4:35 AM,70.9,67.8,90,29.95,2.0,ESE,4.6,-,N/A,,Mist,120,2013-09-08 09:35:00
4:55 AM,70.7,67.6,90,29.95,1.8,SE,3.5,-,N/A,,Mostly Cloudy,140,2013-09-08 09:55:00
5:15 AM,71.6,68.5,90,29.95,1.5,SE,3.5,-,N/A,,Overcast,130,2013-09-08 10:15:00
5:35 AM,72.0,69.1,91,29.95,0.5,SE,3.5,-,N/A,Fog,Fog,130,2013-09-08 10:35:00
5:55 AM,72.5,69.4,90,29.95,0.5,SE,5.8,-,N/A,Fog,Fog,130,2013-09-08 10:55:00
6:15 AM,72.5,69.4,90,29.93,2.0,SE,5.8,-,N/A,,Overcast,140,2013-09-08 11:15:00
6:35 AM,72.5,69.8,91,29.97,2.5,North,9.2,-,N/A,,Overcast,360,2013-09-08 11:35:00
6:55 AM,72.7,69.8,91,29.98,2.5,NNE,8.1,-,N/A,,Overcast,20,2013-09-08 11:55:00
7:15 AM,72.7,69.4,90,29.98,2.0,NNE,3.5,-,N/A,,Overcast,30,2013-09-08 12:15:00
7:35 AM,71.8,68.9,91,29.99,0.2,NNE,5.8,-,N/A,Fog,Fog,30,2013-09-08 12:35:00
7:55 AM,72.0,69.1,91,29.97,0.2,NE,8.1,-,N/A,Fog,Fog,40,2013-09-08 12:55:00
8:15 AM,72.0,69.1,91,29.97,0.2,ENE,5.8,-,N/A,Fog,Fog,70,2013-09-08 13:15:00
8:35 AM,72.5,69.4,90,29.96,0.8,East,9.2,-,N/A,,Overcast,90,2013-09-08 13:35:00
8:55 AM,72.7,69.8,91,29.95,1.0,East,9.2,-,N/A,,Overcast,100,2013-09-08 13:55:00
9:15 AM,72.9,69.8,90,29.94,1.8,East,11.5,-,N/A,,Overcast,100,2013-09-08 14:15:00
9:35 AM,73.9,69.4,86,29.94,2.5,ESE,10.4,-,N/A,,Overcast,110,2013-09-08 14:35:00
9:55 AM,75.2,69.1,81,29.94,4.0,ESE,11.5,-,N/A,,Haze,110,2013-09-08 14:55:00
10:15 AM,75.6,69.1,80,29.94,5.0,SE,9.2,16.1,N/A,,Haze,130,2013-09-08 15:15:00
10:35 AM,76.5,68.9,77,29.94,5.0,ESE,11.5,-,N/A,,Haze,120,2013-09-08 15:35:00
10:55 AM,77.9,69.1,74,29.93,7.0,SE,11.5,16.1,N/A,,Mostly Cloudy,130,2013-09-08 15:55:00
11:15 AM,79.3,69.3,71,29.93,7.0,SE,11.5,-,N/A,,Mostly Cloudy,130,2013-09-08 16:15:00
11:35 AM,80.1,69.6,70,29.93,7.0,SE,10.4,-,N/A,,Scattered Clouds,130,2013-09-08 16:35:00
11:55 AM,80.6,69.3,68,29.94,10.0,ESE,8.1,-,N/A,,Scattered Clouds,120,2013-09-08 16:55:00
12:15 PM,81.1,69.6,68,29.93,10.0,SE,8.1,-,N/A,,Scattered Clouds,130,2013-09-08 17:15:00
12:35 PM,82.2,69.3,65,29.93,10.0,ESE,6.9,-,N/A,,Scattered Clouds,110,2013-09-08 17:35:00
12:55 PM,84.2,69.8,62,29.92,10.0,SE,6.9,-,N/A,,Clear,130,2013-09-08 17:55:00
1:15 PM,85.5,69.4,59,29.91,10.0,ESE,11.5,-,N/A,,Clear,120,2013-09-08 18:15:00
1:35 PM,86.5,69.4,57,29.90,10.0,SE,12.7,-,N/A,,Clear,130,2013-09-08 18:35:00
1:55 PM,87.8,70.0,55,29.89,10.0,ESE,11.5,16.1,N/A,,Clear,120,2013-09-08 18:55:00
2:15 PM,88.3,69.6,54,29.89,10.0,SE,11.5,16.1,N/A,,Clear,130,2013-09-08 19:15:00
2:35 PM,88.7,69.8,53,29.88,10.0,ESE,10.4,17.3,N/A,,Clear,110,2013-09-08 19:35:00
2:55 PM,90.0,68.4,49,29.88,10.0,SE,10.4,-,N/A,,Clear,130,2013-09-08 19:55:00
3:15 PM,91.0,66.6,44,29.86,10.0,SSE,13.8,-,N/A,,Clear,150,2013-09-08 20:15:00
3:35 PM,90.9,68.4,47,29.85,10.0,SE,12.7,18.4,N/A,,Clear,130,2013-09-08 20:35:00
3:55 PM,90.7,69.3,49,29.84,10.0,SE,13.8,20.7,N/A,,Clear,130,2013-09-08 20:55:00
4:15 PM,90.7,69.4,50,29.84,10.0,SE,11.5,19.6,N/A,,Clear,140,2013-09-08 21:15:00
4:35 PM,91.0,69.3,49,29.83,10.0,SE,12.7,18.4,N/A,,Clear,140,2013-09-08 21:35:00
4:55 PM,91.6,69.4,48,29.82,10.0,SE,10.4,-,N/A,,Clear,130,2013-09-08 21:55:00
5:15 PM,91.8,67.6,45,29.82,10.0,SE,12.7,17.3,N/A,,Clear,140,2013-09-08 22:15:00
5:35 PM,91.4,68.0,46,29.81,10.0,SE,11.5,-,N/A,,Clear,140,2013-09-08 22:35:00
5:55 PM,91.4,67.5,45,29.81,10.0,SE,12.7,-,N/A,,Clear,140,2013-09-08 22:55:00
6:15 PM,90.7,68.0,47,29.81,10.0,SE,11.5,-,N/A,,Clear,130,2013-09-08 23:15:00
6:35 PM,89.6,68.5,50,29.80,10.0,SE,8.1,-,N/A,,Clear,140,2013-09-08 23:35:00
6:55 PM,88.7,68.9,52,29.80,10.0,SE,10.4,-,N/A,,Clear,140,2013-09-08 23:55:00
7:15 PM,87.1,69.8,56,29.79,10.0,SE,9.2,-,N/A,,Clear,140,2013-09-09 00:15:00
7:35 PM,85.3,70.0,60,29.79,10.0,SE,8.1,-,N/A,,Clear,130,2013-09-09 00:35:00
7:55 PM,84.0,70.2,63,29.78,10.0,SE,8.1,-,N/A,,Clear,130,2013-09-09 00:55:00
8:15 PM,82.8,69.8,65,29.78,10.0,SE,8.1,-,N/A,,Clear,130,2013-09-09 01:15:00
8:35 PM,82.4,69.8,66,29.78,10.0,SE,8.1,-,N/A,,Clear,130,2013-09-09 01:35:00
8:55 PM,81.5,69.8,67,29.78,10.0,SE,8.1,-,N/A,,Clear,130,2013-09-09 01:55:00
9:15 PM,80.4,69.8,70,29.78,10.0,SE,5.8,-,N/A,,Clear,140,2013-09-09 02:15:00
9:35 PM,79.7,69.8,72,29.78,10.0,SSE,6.9,-,N/A,,Clear,150,2013-09-09 02:35:00
9:55 PM,79.2,69.8,73,29.78,10.0,SE,6.9,-,N/A,,Clear,140,2013-09-09 02:55:00
10:15 PM,79.7,69.1,70,29.78,10.0,SSE,9.2,-,N/A,,Clear,150,2013-09-09 03:15:00
10:35 PM,79.7,68.9,69,29.77,10.0,SSE,10.4,-,N/A,,Clear,150,2013-09-09 03:35:00
10:55 PM,79.7,68.4,68,29.77,10.0,SSE,11.5,-,N/A,,Clear,150,2013-09-09 03:55:00
11:15 PM,79.9,68.0,67,29.78,10.0,SSE,11.5,-,N/A,,Clear,160,2013-09-09 04:15:00
11:35 PM,79.5,67.5,66,29.78,10.0,SSE,11.5,-,N/A,,Clear,160,2013-09-09 04:35:00
11:55 PM,79.9,66.9,64,29.78,10.0,SSE,10.4,-,N/A,,Clear,160,2013-09-09 04:55:00